sensor_id;sensor_type;location;lat;lon;timestamp;P1;durP1;ratioP1;P2;durP2;ratioP2
1839;SDS011;920;48.944;9.148;2023-07-02T00:00:50;4.13;;;3.20;;
1839;SDS011;920;48.944;9.148;2023-07-02T00:03:19;3.77;;;2.97;;
1839;SDS011;920;48.944;9.148;2023-07-02T00:05:50;4.17;;;3.07;;
1839;SDS011;920;48.944;9.148;2023-07-02T00:08:19;3.67;;;3.07;;
1839;SDS011;920;48.944;9.148;2023-07-02T00:10:46;3.63;;;3.23;;
1839;SDS011;920;48.944;9.148;2023-07-02T00:13:13;3.60;;;2.80;;
1839;SDS011;920;48.944;9.148;2023-07-02T00:15:40;4.43;;;3.10;;
1839;SDS011;920;48.944;9.148;2023-07-02T00:18:07;3.30;;;2.80;;
1839;SDS011;920;48.944;9.148;2023-07-02T00:20:35;3.97;;;3.23;;
1839;SDS011;920;48.944;9.148;2023-07-02T00:23:02;4.97;;;3.07;;
1839;SDS011;920;48.944;9.148;2023-07-02T00:25:29;3.70;;;3.03;;
1839;SDS011;920;48.944;9.148;2023-07-02T00:27:56;4.13;;;3.17;;
1839;SDS011;920;48.944;9.148;2023-07-02T00:30:23;3.60;;;2.73;;
1839;SDS011;920;48.944;9.148;2023-07-02T00:32:50;3.50;;;2.97;;
1839;SDS011;920;48.944;9.148;2023-07-02T00:35:17;4.10;;;3.33;;
1839;SDS011;920;48.944;9.148;2023-07-02T00:37:45;3.40;;;2.93;;
1839;SDS011;920;48.944;9.148;2023-07-02T00:40:11;3.93;;;3.50;;
1839;SDS011;920;48.944;9.148;2023-07-02T00:42:38;3.60;;;3.07;;
1839;SDS011;920;48.944;9.148;2023-07-02T00:45:05;3.60;;;3.23;;
1839;SDS011;920;48.944;9.148;2023-07-02T00:47:33;3.30;;;3.00;;
1839;SDS011;920;48.944;9.148;2023-07-02T00:50:01;3.50;;;2.77;;
1839;SDS011;920;48.944;9.148;2023-07-02T00:52:28;3.53;;;2.80;;
1839;SDS011;920;48.944;9.148;2023-07-02T00:54:56;4.10;;;2.90;;
1839;SDS011;920;48.944;9.148;2023-07-02T00:57:23;3.40;;;3.10;;
1839;SDS011;920;48.944;9.148;2023-07-02T00:59:55;4.83;;;3.20;;
1839;SDS011;920;48.944;9.148;2023-07-02T01:02:22;3.30;;;2.93;;
1839;SDS011;920;48.944;9.148;2023-07-02T01:04:50;3.43;;;2.80;;
1839;SDS011;920;48.944;9.148;2023-07-02T01:07:22;5.23;;;2.83;;
1839;SDS011;920;48.944;9.148;2023-07-02T01:09:49;3.47;;;3.17;;
1839;SDS011;920;48.944;9.148;2023-07-02T01:12:18;3.30;;;2.80;;
1839;SDS011;920;48.944;9.148;2023-07-02T01:14:47;3.60;;;3.30;;
1839;SDS011;920;48.944;9.148;2023-07-02T01:17:14;4.73;;;3.00;;
1839;SDS011;920;48.944;9.148;2023-07-02T01:19:47;3.40;;;3.00;;
1839;SDS011;920;48.944;9.148;2023-07-02T01:22:16;4.03;;;3.40;;
1839;SDS011;920;48.944;9.148;2023-07-02T01:24:44;3.40;;;2.80;;
1839;SDS011;920;48.944;9.148;2023-07-02T01:27:12;3.57;;;2.80;;
1839;SDS011;920;48.944;9.148;2023-07-02T01:29:40;3.97;;;2.90;;
1839;SDS011;920;48.944;9.148;2023-07-02T01:32:07;4.57;;;2.87;;
1839;SDS011;920;48.944;9.148;2023-07-02T01:34:34;3.10;;;2.70;;
1839;SDS011;920;48.944;9.148;2023-07-02T01:37:02;3.33;;;3.00;;
1839;SDS011;920;48.944;9.148;2023-07-02T01:39:30;4.80;;;2.77;;
1839;SDS011;920;48.944;9.148;2023-07-02T01:42:06;3.63;;;2.70;;
1839;SDS011;920;48.944;9.148;2023-07-02T01:44:34;3.03;;;2.70;;
1839;SDS011;920;48.944;9.148;2023-07-02T01:47:01;3.20;;;2.60;;
1839;SDS011;920;48.944;9.148;2023-07-02T01:49:28;3.90;;;3.00;;
1839;SDS011;920;48.944;9.148;2023-07-02T01:51:55;4.53;;;3.03;;
1839;SDS011;920;48.944;9.148;2023-07-02T01:54:25;4.40;;;2.70;;
1839;SDS011;920;48.944;9.148;2023-07-02T01:56:54;2.93;;;2.50;;
1839;SDS011;920;48.944;9.148;2023-07-02T01:59:21;4.10;;;3.10;;
1839;SDS011;920;48.944;9.148;2023-07-02T02:01:47;3.67;;;2.87;;
1839;SDS011;920;48.944;9.148;2023-07-02T02:04:15;3.30;;;2.90;;
1839;SDS011;920;48.944;9.148;2023-07-02T02:06:42;2.97;;;2.60;;
1839;SDS011;920;48.944;9.148;2023-07-02T02:09:10;3.17;;;2.70;;
1839;SDS011;920;48.944;9.148;2023-07-02T02:11:39;3.10;;;2.80;;
1839;SDS011;920;48.944;9.148;2023-07-02T02:14:06;3.17;;;2.83;;
1839;SDS011;920;48.944;9.148;2023-07-02T02:16:33;3.80;;;3.00;;
1839;SDS011;920;48.944;9.148;2023-07-02T02:19:01;3.17;;;2.87;;
1839;SDS011;920;48.944;9.148;2023-07-02T02:21:28;3.93;;;2.97;;
1839;SDS011;920;48.944;9.148;2023-07-02T02:23:55;4.63;;;3.00;;
1839;SDS011;920;48.944;9.148;2023-07-02T02:26:22;3.80;;;2.77;;
1839;SDS011;920;48.944;9.148;2023-07-02T02:28:51;4.47;;;2.97;;
1839;SDS011;920;48.944;9.148;2023-07-02T02:31:18;3.57;;;2.90;;
1839;SDS011;920;48.944;9.148;2023-07-02T02:33:45;3.00;;;2.57;;
1839;SDS011;920;48.944;9.148;2023-07-02T02:36:13;3.77;;;3.03;;
1839;SDS011;920;48.944;9.148;2023-07-02T02:38:41;4.43;;;3.00;;
1839;SDS011;920;48.944;9.148;2023-07-02T02:41:07;4.03;;;2.90;;
1839;SDS011;920;48.944;9.148;2023-07-02T02:43:40;3.80;;;3.40;;
1839;SDS011;920;48.944;9.148;2023-07-02T02:46:09;3.63;;;3.00;;
1839;SDS011;920;48.944;9.148;2023-07-02T02:48:36;3.20;;;2.87;;
1839;SDS011;920;48.944;9.148;2023-07-02T02:51:03;3.60;;;3.20;;
1839;SDS011;920;48.944;9.148;2023-07-02T02:53:29;3.87;;;3.43;;
1839;SDS011;920;48.944;9.148;2023-07-02T02:55:56;4.40;;;3.33;;
1839;SDS011;920;48.944;9.148;2023-07-02T02:58:23;4.23;;;3.17;;
1839;SDS011;920;48.944;9.148;2023-07-02T03:00:49;5.00;;;3.10;;
1839;SDS011;920;48.944;9.148;2023-07-02T03:03:18;4.17;;;3.77;;
1839;SDS011;920;48.944;9.148;2023-07-02T03:05:45;4.17;;;2.93;;
1839;SDS011;920;48.944;9.148;2023-07-02T03:08:13;4.00;;;3.40;;
1839;SDS011;920;48.944;9.148;2023-07-02T03:10:40;4.07;;;3.67;;
1839;SDS011;920;48.944;9.148;2023-07-02T03:13:06;7.40;;;4.17;;
1839;SDS011;920;48.944;9.148;2023-07-02T03:15:33;4.80;;;3.23;;
1839;SDS011;920;48.944;9.148;2023-07-02T03:18:00;4.70;;;3.70;;
1839;SDS011;920;48.944;9.148;2023-07-02T03:20:28;7.53;;;3.80;;
1839;SDS011;920;48.944;9.148;2023-07-02T03:22:55;4.40;;;3.63;;
1839;SDS011;920;48.944;9.148;2023-07-02T03:25:21;5.73;;;4.10;;
1839;SDS011;920;48.944;9.148;2023-07-02T03:27:48;4.67;;;3.60;;
1839;SDS011;920;48.944;9.148;2023-07-02T03:30:15;5.70;;;3.87;;
1839;SDS011;920;48.944;9.148;2023-07-02T03:32:41;5.93;;;4.00;;
1839;SDS011;920;48.944;9.148;2023-07-02T03:35:08;5.00;;;3.80;;
1839;SDS011;920;48.944;9.148;2023-07-02T03:37:36;7.10;;;4.50;;
1839;SDS011;920;48.944;9.148;2023-07-02T03:40:03;4.83;;;4.07;;
1839;SDS011;920;48.944;9.148;2023-07-02T03:42:32;9.23;;;4.37;;
1839;SDS011;920;48.944;9.148;2023-07-02T03:44:59;5.20;;;4.10;;
1839;SDS011;920;48.944;9.148;2023-07-02T03:47:26;7.70;;;4.60;;
1839;SDS011;920;48.944;9.148;2023-07-02T03:49:52;6.17;;;4.80;;
1839;SDS011;920;48.944;9.148;2023-07-02T03:52:19;7.10;;;5.20;;
1839;SDS011;920;48.944;9.148;2023-07-02T03:54:47;6.60;;;4.80;;
1839;SDS011;920;48.944;9.148;2023-07-02T03:57:14;6.50;;;5.00;;
1839;SDS011;920;48.944;9.148;2023-07-02T03:59:40;6.40;;;4.73;;
1839;SDS011;920;48.944;9.148;2023-07-02T04:02:07;7.47;;;4.73;;
1839;SDS011;920;48.944;9.148;2023-07-02T04:04:34;5.27;;;4.40;;
1839;SDS011;920;48.944;9.148;2023-07-02T04:07:01;7.17;;;5.20;;
1839;SDS011;920;48.944;9.148;2023-07-02T04:09:27;6.20;;;4.67;;
1839;SDS011;920;48.944;9.148;2023-07-02T04:11:55;7.57;;;4.60;;
1839;SDS011;920;48.944;9.148;2023-07-02T04:14:22;6.70;;;4.47;;
1839;SDS011;920;48.944;9.148;2023-07-02T04:16:49;7.20;;;4.83;;
1839;SDS011;920;48.944;9.148;2023-07-02T04:19:15;5.17;;;4.37;;
1839;SDS011;920;48.944;9.148;2023-07-02T04:21:42;5.97;;;4.27;;
1839;SDS011;920;48.944;9.148;2023-07-02T04:24:09;6.63;;;4.80;;
1839;SDS011;920;48.944;9.148;2023-07-02T04:26:35;5.57;;;4.03;;
1839;SDS011;920;48.944;9.148;2023-07-02T04:29:04;7.13;;;4.70;;
1839;SDS011;920;48.944;9.148;2023-07-02T04:31:30;5.53;;;4.53;;
1839;SDS011;920;48.944;9.148;2023-07-02T04:33:57;6.80;;;4.63;;
1839;SDS011;920;48.944;9.148;2023-07-02T04:36:24;7.70;;;5.03;;
1839;SDS011;920;48.944;9.148;2023-07-02T04:38:51;5.13;;;4.00;;
1839;SDS011;920;48.944;9.148;2023-07-02T04:41:18;7.60;;;4.50;;
1839;SDS011;920;48.944;9.148;2023-07-02T04:43:45;5.83;;;4.30;;
1839;SDS011;920;48.944;9.148;2023-07-02T04:46:13;5.00;;;3.80;;
1839;SDS011;920;48.944;9.148;2023-07-02T04:48:40;6.73;;;4.07;;
1839;SDS011;920;48.944;9.148;2023-07-02T04:51:06;4.87;;;3.80;;
1839;SDS011;920;48.944;9.148;2023-07-02T04:53:33;4.87;;;4.03;;
1839;SDS011;920;48.944;9.148;2023-07-02T04:56:00;5.10;;;3.97;;
1839;SDS011;920;48.944;9.148;2023-07-02T04:58:27;7.30;;;4.13;;
1839;SDS011;920;48.944;9.148;2023-07-02T05:00:53;6.43;;;3.80;;
1839;SDS011;920;48.944;9.148;2023-07-02T05:03:21;5.73;;;4.13;;
1839;SDS011;920;48.944;9.148;2023-07-02T05:05:48;6.07;;;3.70;;
1839;SDS011;920;48.944;9.148;2023-07-02T05:08:15;5.43;;;3.50;;
1839;SDS011;920;48.944;9.148;2023-07-02T05:10:42;6.40;;;3.77;;
1839;SDS011;920;48.944;9.148;2023-07-02T05:13:08;4.50;;;3.40;;
1839;SDS011;920;48.944;9.148;2023-07-02T05:15:35;5.73;;;3.60;;
1839;SDS011;920;48.944;9.148;2023-07-02T05:18:02;5.83;;;3.50;;
1839;SDS011;920;48.944;9.148;2023-07-02T05:20:31;6.00;;;3.80;;
1839;SDS011;920;48.944;9.148;2023-07-02T05:22:57;5.43;;;3.27;;
1839;SDS011;920;48.944;9.148;2023-07-02T05:25:24;4.90;;;3.40;;
1839;SDS011;920;48.944;9.148;2023-07-02T05:27:51;6.30;;;3.57;;
1839;SDS011;920;48.944;9.148;2023-07-02T05:30:18;5.80;;;3.30;;
1839;SDS011;920;48.944;9.148;2023-07-02T05:32:44;6.03;;;3.43;;
1839;SDS011;920;48.944;9.148;2023-07-02T05:35:11;4.90;;;3.60;;
1839;SDS011;920;48.944;9.148;2023-07-02T05:37:39;6.30;;;3.93;;
1839;SDS011;920;48.944;9.148;2023-07-02T05:40:06;8.53;;;4.50;;
1839;SDS011;920;48.944;9.148;2023-07-02T05:42:34;7.30;;;3.73;;
1839;SDS011;920;48.944;9.148;2023-07-02T05:45:01;5.10;;;4.00;;
1839;SDS011;920;48.944;9.148;2023-07-02T05:47:28;6.47;;;4.30;;
1839;SDS011;920;48.944;9.148;2023-07-02T05:49:54;7.77;;;4.43;;
1839;SDS011;920;48.944;9.148;2023-07-02T05:52:21;6.03;;;4.30;;
1839;SDS011;920;48.944;9.148;2023-07-02T05:54:49;6.77;;;4.73;;
1839;SDS011;920;48.944;9.148;2023-07-02T05:57:16;6.67;;;4.70;;
1839;SDS011;920;48.944;9.148;2023-07-02T05:59:42;6.57;;;4.57;;
1839;SDS011;920;48.944;9.148;2023-07-02T06:02:09;7.53;;;5.20;;
1839;SDS011;920;48.944;9.148;2023-07-02T06:04:36;6.53;;;4.70;;
1839;SDS011;920;48.944;9.148;2023-07-02T06:07:05;7.40;;;5.30;;
1839;SDS011;920;48.944;9.148;2023-07-02T06:09:31;7.17;;;5.37;;
1839;SDS011;920;48.944;9.148;2023-07-02T06:11:59;9.20;;;5.10;;
1839;SDS011;920;48.944;9.148;2023-07-02T06:14:26;7.07;;;5.23;;
1839;SDS011;920;48.944;9.148;2023-07-02T06:16:58;7.10;;;5.40;;
1839;SDS011;920;48.944;9.148;2023-07-02T06:19:26;7.60;;;5.50;;
1839;SDS011;920;48.944;9.148;2023-07-02T06:21:52;8.20;;;5.60;;
1839;SDS011;920;48.944;9.148;2023-07-02T06:24:19;6.10;;;4.13;;
1839;SDS011;920;48.944;9.148;2023-07-02T06:26:46;7.60;;;5.60;;
1839;SDS011;920;48.944;9.148;2023-07-02T06:29:14;6.60;;;5.20;;
1839;SDS011;920;48.944;9.148;2023-07-02T06:31:40;7.20;;;4.97;;
1839;SDS011;920;48.944;9.148;2023-07-02T06:34:07;7.00;;;5.10;;
1839;SDS011;920;48.944;9.148;2023-07-02T06:36:34;6.67;;;5.17;;
1839;SDS011;920;48.944;9.148;2023-07-02T06:39:01;7.10;;;5.10;;
1839;SDS011;920;48.944;9.148;2023-07-02T06:41:28;10.83;;;6.17;;
1839;SDS011;920;48.944;9.148;2023-07-02T06:43:54;10.67;;;6.00;;
1839;SDS011;920;48.944;9.148;2023-07-02T06:46:22;7.80;;;5.60;;
1839;SDS011;920;48.944;9.148;2023-07-02T06:48:49;7.60;;;6.13;;
1839;SDS011;920;48.944;9.148;2023-07-02T06:51:16;12.10;;;6.30;;
1839;SDS011;920;48.944;9.148;2023-07-02T06:53:44;9.50;;;7.17;;
1839;SDS011;920;48.944;9.148;2023-07-02T06:56:11;10.50;;;6.83;;
1839;SDS011;920;48.944;9.148;2023-07-02T06:58:39;8.97;;;6.30;;
1839;SDS011;920;48.944;9.148;2023-07-02T07:01:05;8.50;;;6.10;;
1839;SDS011;920;48.944;9.148;2023-07-02T07:03:34;9.90;;;6.80;;
1839;SDS011;920;48.944;9.148;2023-07-02T07:06:01;8.00;;;6.33;;
1839;SDS011;920;48.944;9.148;2023-07-02T07:08:28;7.13;;;6.17;;
1839;SDS011;920;48.944;9.148;2023-07-02T07:10:55;7.77;;;5.60;;
1839;SDS011;920;48.944;9.148;2023-07-02T07:13:22;6.93;;;5.83;;
1839;SDS011;920;48.944;9.148;2023-07-02T07:15:49;12.23;;;6.50;;
1839;SDS011;920;48.944;9.148;2023-07-02T07:18:15;7.67;;;6.23;;
1839;SDS011;920;48.944;9.148;2023-07-02T07:20:45;9.03;;;6.20;;
1839;SDS011;920;48.944;9.148;2023-07-02T07:23:11;7.53;;;5.23;;
1839;SDS011;920;48.944;9.148;2023-07-02T07:25:38;9.87;;;6.27;;
1839;SDS011;920;48.944;9.148;2023-07-02T07:28:05;7.83;;;6.17;;
1839;SDS011;920;48.944;9.148;2023-07-02T07:30:32;9.33;;;6.97;;
1839;SDS011;920;48.944;9.148;2023-07-02T07:32:58;9.83;;;6.97;;
1839;SDS011;920;48.944;9.148;2023-07-02T07:35:25;8.67;;;6.90;;
1839;SDS011;920;48.944;9.148;2023-07-02T07:37:53;8.60;;;7.17;;
1839;SDS011;920;48.944;9.148;2023-07-02T07:40:20;8.73;;;7.50;;
1839;SDS011;920;48.944;9.148;2023-07-02T07:42:47;8.03;;;7.10;;
1839;SDS011;920;48.944;9.148;2023-07-02T07:45:13;10.40;;;7.53;;
1839;SDS011;920;48.944;9.148;2023-07-02T07:47:40;9.73;;;8.00;;
1839;SDS011;920;48.944;9.148;2023-07-02T07:50:07;12.17;;;7.50;;
1839;SDS011;920;48.944;9.148;2023-07-02T07:52:36;11.30;;;8.57;;
1839;SDS011;920;48.944;9.148;2023-07-02T07:55:06;10.63;;;8.57;;
1839;SDS011;920;48.944;9.148;2023-07-02T07:57:33;12.50;;;9.27;;
1839;SDS011;920;48.944;9.148;2023-07-02T08:00:01;11.90;;;8.53;;
1839;SDS011;920;48.944;9.148;2023-07-02T08:02:41;12.03;;;8.90;;
1839;SDS011;920;48.944;9.148;2023-07-02T08:05:08;11.47;;;9.80;;
1839;SDS011;920;48.944;9.148;2023-07-02T08:07:35;11.83;;;9.47;;
1839;SDS011;920;48.944;9.148;2023-07-02T08:10:02;11.80;;;9.80;;
1839;SDS011;920;48.944;9.148;2023-07-02T08:12:30;14.57;;;10.00;;
1839;SDS011;920;48.944;9.148;2023-07-02T08:14:57;12.00;;;10.23;;
1839;SDS011;920;48.944;9.148;2023-07-02T08:17:24;12.50;;;9.63;;
1839;SDS011;920;48.944;9.148;2023-07-02T08:19:50;11.57;;;8.93;;
1839;SDS011;920;48.944;9.148;2023-07-02T08:22:17;13.73;;;10.50;;
1839;SDS011;920;48.944;9.148;2023-07-02T08:24:44;13.30;;;10.87;;
1839;SDS011;920;48.944;9.148;2023-07-02T08:27:14;17.77;;;11.50;;
1839;SDS011;920;48.944;9.148;2023-07-02T08:29:45;14.63;;;11.47;;
1839;SDS011;920;48.944;9.148;2023-07-02T08:32:12;17.47;;;11.90;;
1839;SDS011;920;48.944;9.148;2023-07-02T08:34:39;16.53;;;12.43;;
1839;SDS011;920;48.944;9.148;2023-07-02T08:37:05;16.30;;;12.80;;
1839;SDS011;920;48.944;9.148;2023-07-02T08:39:33;15.90;;;12.40;;
1839;SDS011;920;48.944;9.148;2023-07-02T08:42:01;15.40;;;12.90;;
1839;SDS011;920;48.944;9.148;2023-07-02T08:44:27;20.10;;;13.63;;
1839;SDS011;920;48.944;9.148;2023-07-02T08:46:56;15.67;;;12.60;;
1839;SDS011;920;48.944;9.148;2023-07-02T08:49:22;18.87;;;13.60;;
1839;SDS011;920;48.944;9.148;2023-07-02T08:51:49;16.37;;;12.63;;
1839;SDS011;920;48.944;9.148;2023-07-02T08:54:16;17.13;;;12.40;;
1839;SDS011;920;48.944;9.148;2023-07-02T08:56:44;17.00;;;13.30;;
1839;SDS011;920;48.944;9.148;2023-07-02T08:59:11;15.47;;;13.03;;
1839;SDS011;920;48.944;9.148;2023-07-02T09:01:44;17.70;;;12.73;;
1839;SDS011;920;48.944;9.148;2023-07-02T09:04:16;16.83;;;12.97;;
1839;SDS011;920;48.944;9.148;2023-07-02T09:06:43;15.93;;;13.03;;
1839;SDS011;920;48.944;9.148;2023-07-02T09:09:10;16.40;;;12.33;;
1839;SDS011;920;48.944;9.148;2023-07-02T09:11:46;16.67;;;13.50;;
1839;SDS011;920;48.944;9.148;2023-07-02T09:14:23;18.63;;;13.83;;
1839;SDS011;920;48.944;9.148;2023-07-02T09:17:00;21.07;;;15.37;;
1839;SDS011;920;48.944;9.148;2023-07-02T09:19:29;16.53;;;13.83;;
1839;SDS011;920;48.944;9.148;2023-07-02T09:21:57;16.43;;;13.70;;
1839;SDS011;920;48.944;9.148;2023-07-02T09:24:26;19.47;;;14.17;;
1839;SDS011;920;48.944;9.148;2023-07-02T09:26:54;18.70;;;14.40;;
1839;SDS011;920;48.944;9.148;2023-07-02T09:29:23;18.70;;;14.40;;
1839;SDS011;920;48.944;9.148;2023-07-02T09:31:50;18.37;;;13.90;;
1839;SDS011;920;48.944;9.148;2023-07-02T09:34:17;16.40;;;14.70;;
1839;SDS011;920;48.944;9.148;2023-07-02T09:36:45;19.37;;;15.17;;
1839;SDS011;920;48.944;9.148;2023-07-02T09:39:12;20.60;;;14.23;;
1839;SDS011;920;48.944;9.148;2023-07-02T09:41:40;19.63;;;14.90;;
1839;SDS011;920;48.944;9.148;2023-07-02T09:44:07;17.40;;;14.60;;
1839;SDS011;920;48.944;9.148;2023-07-02T09:46:35;18.57;;;14.07;;
1839;SDS011;920;48.944;9.148;2023-07-02T09:49:04;18.07;;;15.07;;
1839;SDS011;920;48.944;9.148;2023-07-02T09:51:31;20.70;;;14.60;;
1839;SDS011;920;48.944;9.148;2023-07-02T09:54:00;21.57;;;15.20;;
1839;SDS011;920;48.944;9.148;2023-07-02T09:56:26;20.70;;;14.83;;
1839;SDS011;920;48.944;9.148;2023-07-02T09:58:53;20.20;;;14.83;;
1839;SDS011;920;48.944;9.148;2023-07-02T10:01:20;18.93;;;14.10;;
1839;SDS011;920;48.944;9.148;2023-07-02T10:03:46;19.80;;;16.27;;
1839;SDS011;920;48.944;9.148;2023-07-02T10:06:13;20.90;;;15.83;;
1839;SDS011;920;48.944;9.148;2023-07-02T10:08:40;18.83;;;14.17;;
1839;SDS011;920;48.944;9.148;2023-07-02T10:11:11;20.33;;;15.23;;
1839;SDS011;920;48.944;9.148;2023-07-02T10:13:39;19.43;;;14.80;;
1839;SDS011;920;48.944;9.148;2023-07-02T10:16:06;19.40;;;14.97;;
1839;SDS011;920;48.944;9.148;2023-07-02T10:18:33;17.77;;;15.03;;
1839;SDS011;920;48.944;9.148;2023-07-02T10:21:12;18.33;;;13.50;;
1839;SDS011;920;48.944;9.148;2023-07-02T10:23:39;20.50;;;16.50;;
1839;SDS011;920;48.944;9.148;2023-07-02T10:26:15;18.93;;;14.50;;
1839;SDS011;920;48.944;9.148;2023-07-02T10:28:42;16.10;;;13.77;;
1839;SDS011;920;48.944;9.148;2023-07-02T10:31:19;17.70;;;14.77;;
1839;SDS011;920;48.944;9.148;2023-07-02T10:33:46;17.33;;;13.90;;
1839;SDS011;920;48.944;9.148;2023-07-02T10:36:19;16.00;;;13.33;;
1839;SDS011;920;48.944;9.148;2023-07-02T10:38:47;16.93;;;14.10;;
1839;SDS011;920;48.944;9.148;2023-07-02T10:41:24;15.40;;;13.03;;
1839;SDS011;920;48.944;9.148;2023-07-02T10:43:51;18.73;;;14.77;;
1839;SDS011;920;48.944;9.148;2023-07-02T10:46:18;18.90;;;14.00;;
1839;SDS011;920;48.944;9.148;2023-07-02T10:48:50;17.13;;;14.00;;
1839;SDS011;920;48.944;9.148;2023-07-02T10:51:17;16.23;;;13.77;;
1839;SDS011;920;48.944;9.148;2023-07-02T10:53:44;34.50;;;21.23;;
1839;SDS011;920;48.944;9.148;2023-07-02T10:56:15;17.90;;;15.23;;
1839;SDS011;920;48.944;9.148;2023-07-02T10:58:43;18.30;;;15.60;;
1839;SDS011;920;48.944;9.148;2023-07-02T11:01:11;20.03;;;17.70;;
1839;SDS011;920;48.944;9.148;2023-07-02T11:03:38;37.00;;;33.30;;
1839;SDS011;920;48.944;9.148;2023-07-02T11:06:04;23.10;;;20.53;;
1839;SDS011;920;48.944;9.148;2023-07-02T11:08:35;30.30;;;25.23;;
1839;SDS011;920;48.944;9.148;2023-07-02T11:11:06;20.83;;;15.60;;
1839;SDS011;920;48.944;9.148;2023-07-02T11:13:33;17.07;;;14.17;;
1839;SDS011;920;48.944;9.148;2023-07-02T11:16:01;22.73;;;15.10;;
1839;SDS011;920;48.944;9.148;2023-07-02T11:18:30;14.80;;;13.17;;
1839;SDS011;920;48.944;9.148;2023-07-02T11:20:57;14.83;;;13.23;;
1839;SDS011;920;48.944;9.148;2023-07-02T11:23:24;22.27;;;13.57;;
1839;SDS011;920;48.944;9.148;2023-07-02T11:28:23;24.60;;;13.40;;
1839;SDS011;920;48.944;9.148;2023-07-02T11:30:50;17.87;;;14.13;;
1839;SDS011;920;48.944;9.148;2023-07-02T11:33:18;15.80;;;12.70;;
1839;SDS011;920;48.944;9.148;2023-07-02T11:35:45;14.70;;;11.90;;
1839;SDS011;920;48.944;9.148;2023-07-02T11:38:11;16.40;;;12.50;;
1839;SDS011;920;48.944;9.148;2023-07-02T11:40:38;13.70;;;12.20;;
1839;SDS011;920;48.944;9.148;2023-07-02T11:43:05;14.17;;;12.67;;
1839;SDS011;920;48.944;9.148;2023-07-02T11:45:32;16.23;;;12.93;;
1839;SDS011;920;48.944;9.148;2023-07-02T11:47:59;18.07;;;13.77;;
1839;SDS011;920;48.944;9.148;2023-07-02T11:50:27;14.63;;;12.27;;
1839;SDS011;920;48.944;9.148;2023-07-02T11:52:55;18.10;;;14.10;;
1839;SDS011;920;48.944;9.148;2023-07-02T11:55:22;15.80;;;12.80;;
1839;SDS011;920;48.944;9.148;2023-07-02T11:57:49;15.50;;;13.17;;
1839;SDS011;920;48.944;9.148;2023-07-02T12:00:15;15.37;;;12.87;;
1839;SDS011;920;48.944;9.148;2023-07-02T12:02:42;17.30;;;12.20;;
1839;SDS011;920;48.944;9.148;2023-07-02T12:05:09;18.90;;;13.10;;
1839;SDS011;920;48.944;9.148;2023-07-02T12:07:37;15.67;;;13.10;;
1839;SDS011;920;48.944;9.148;2023-07-02T12:10:05;15.97;;;12.83;;
1839;SDS011;920;48.944;9.148;2023-07-02T12:12:33;15.63;;;13.10;;
1839;SDS011;920;48.944;9.148;2023-07-02T12:14:59;15.10;;;12.67;;
1839;SDS011;920;48.944;9.148;2023-07-02T12:17:26;15.27;;;13.00;;
1839;SDS011;920;48.944;9.148;2023-07-02T12:19:53;15.53;;;13.20;;
1839;SDS011;920;48.944;9.148;2023-07-02T12:22:19;18.27;;;13.47;;
1839;SDS011;920;48.944;9.148;2023-07-02T12:24:49;17.97;;;13.77;;
1839;SDS011;920;48.944;9.148;2023-07-02T12:27:18;17.13;;;13.20;;
1839;SDS011;920;48.944;9.148;2023-07-02T12:29:45;16.80;;;13.90;;
1839;SDS011;920;48.944;9.148;2023-07-02T12:32:13;18.40;;;14.17;;
1839;SDS011;920;48.944;9.148;2023-07-02T12:34:40;17.03;;;13.60;;
1839;SDS011;920;48.944;9.148;2023-07-02T12:37:07;17.70;;;14.53;;
1839;SDS011;920;48.944;9.148;2023-07-02T12:39:34;15.13;;;13.53;;
1839;SDS011;920;48.944;9.148;2023-07-02T12:42:02;15.60;;;13.33;;
1839;SDS011;920;48.944;9.148;2023-07-02T12:44:29;14.20;;;12.67;;
1839;SDS011;920;48.944;9.148;2023-07-02T12:46:56;15.03;;;13.43;;
1839;SDS011;920;48.944;9.148;2023-07-02T12:49:22;18.47;;;13.70;;
1839;SDS011;920;48.944;9.148;2023-07-02T12:51:49;18.57;;;13.93;;
1839;SDS011;920;48.944;9.148;2023-07-02T12:54:16;17.23;;;15.10;;
1839;SDS011;920;48.944;9.148;2023-07-02T12:56:42;14.37;;;12.57;;
1839;SDS011;920;48.944;9.148;2023-07-02T12:59:10;15.37;;;12.80;;
1839;SDS011;920;48.944;9.148;2023-07-02T13:01:37;15.00;;;12.60;;
1839;SDS011;920;48.944;9.148;2023-07-02T13:04:04;17.27;;;13.80;;
1839;SDS011;920;48.944;9.148;2023-07-02T13:06:31;15.40;;;13.73;;
1839;SDS011;920;48.944;9.148;2023-07-02T13:08:59;14.87;;;12.93;;
1839;SDS011;920;48.944;9.148;2023-07-02T13:11:26;15.40;;;13.77;;
1839;SDS011;920;48.944;9.148;2023-07-02T13:13:53;16.30;;;13.60;;
1839;SDS011;920;48.944;9.148;2023-07-02T13:16:21;15.00;;;13.40;;
1839;SDS011;920;48.944;9.148;2023-07-02T13:18:49;16.30;;;13.67;;
1839;SDS011;920;48.944;9.148;2023-07-02T13:21:15;19.50;;;14.30;;
1839;SDS011;920;48.944;9.148;2023-07-02T13:23:42;16.90;;;13.70;;
1839;SDS011;920;48.944;9.148;2023-07-02T13:26:09;15.43;;;12.47;;
1839;SDS011;920;48.944;9.148;2023-07-02T13:28:36;16.30;;;12.47;;
1839;SDS011;920;48.944;9.148;2023-07-02T13:31:02;14.00;;;12.30;;
1839;SDS011;920;48.944;9.148;2023-07-02T13:33:30;15.77;;;12.40;;
1839;SDS011;920;48.944;9.148;2023-07-02T13:35:57;13.23;;;11.83;;
1839;SDS011;920;48.944;9.148;2023-07-02T13:38:24;13.93;;;12.30;;
1839;SDS011;920;48.944;9.148;2023-07-02T13:40:51;14.50;;;12.67;;
1839;SDS011;920;48.944;9.148;2023-07-02T13:43:17;12.07;;;10.87;;
1839;SDS011;920;48.944;9.148;2023-07-02T13:45:44;14.87;;;12.00;;
1839;SDS011;920;48.944;9.148;2023-07-02T13:48:11;13.87;;;12.00;;
1839;SDS011;920;48.944;9.148;2023-07-02T13:50:39;12.17;;;10.97;;
1839;SDS011;920;48.944;9.148;2023-07-02T13:53:06;13.20;;;11.20;;
1839;SDS011;920;48.944;9.148;2023-07-02T13:55:33;13.80;;;11.80;;
1839;SDS011;920;48.944;9.148;2023-07-02T13:58:00;13.77;;;11.97;;
1839;SDS011;920;48.944;9.148;2023-07-02T14:00:28;13.37;;;11.73;;
1839;SDS011;920;48.944;9.148;2023-07-02T14:02:55;14.43;;;12.27;;
1839;SDS011;920;48.944;9.148;2023-07-02T14:05:24;12.80;;;11.47;;
1839;SDS011;920;48.944;9.148;2023-07-02T14:07:51;14.03;;;12.00;;
1839;SDS011;920;48.944;9.148;2023-07-02T14:10:18;16.47;;;12.20;;
1839;SDS011;920;48.944;9.148;2023-07-02T14:12:44;12.60;;;11.10;;
1839;SDS011;920;48.944;9.148;2023-07-02T14:15:11;13.73;;;11.60;;
1839;SDS011;920;48.944;9.148;2023-07-02T14:17:39;13.50;;;11.30;;
1839;SDS011;920;48.944;9.148;2023-07-02T14:20:07;13.23;;;11.83;;
1839;SDS011;920;48.944;9.148;2023-07-02T14:22:34;15.57;;;12.30;;
1839;SDS011;920;48.944;9.148;2023-07-02T14:25:01;12.60;;;10.33;;
1839;SDS011;920;48.944;9.148;2023-07-02T14:27:28;13.97;;;12.47;;
1839;SDS011;920;48.944;9.148;2023-07-02T14:29:55;14.93;;;12.37;;
1839;SDS011;920;48.944;9.148;2023-07-02T14:32:22;15.73;;;12.60;;
1839;SDS011;920;48.944;9.148;2023-07-02T14:34:50;12.93;;;11.53;;
1839;SDS011;920;48.944;9.148;2023-07-02T14:37:17;12.50;;;11.20;;
1839;SDS011;920;48.944;9.148;2023-07-02T14:39:43;14.63;;;11.87;;
1839;SDS011;920;48.944;9.148;2023-07-02T14:42:10;13.20;;;11.57;;
1839;SDS011;920;48.944;9.148;2023-07-02T14:44:37;15.93;;;12.60;;
1839;SDS011;920;48.944;9.148;2023-07-02T14:47:04;14.43;;;11.90;;
1839;SDS011;920;48.944;9.148;2023-07-02T14:49:31;15.73;;;12.17;;
1839;SDS011;920;48.944;9.148;2023-07-02T14:51:59;16.60;;;11.90;;
1839;SDS011;920;48.944;9.148;2023-07-02T14:54:26;15.57;;;13.50;;
1839;SDS011;920;48.944;9.148;2023-07-02T14:56:52;15.67;;;13.20;;
1839;SDS011;920;48.944;9.148;2023-07-02T14:59:19;13.20;;;11.80;;
1839;SDS011;920;48.944;9.148;2023-07-02T15:01:46;14.27;;;11.60;;
1839;SDS011;920;48.944;9.148;2023-07-02T15:04:13;11.93;;;10.60;;
1839;SDS011;920;48.944;9.148;2023-07-02T15:06:39;12.90;;;11.60;;
1839;SDS011;920;48.944;9.148;2023-07-02T15:09:08;11.87;;;10.67;;
1839;SDS011;920;48.944;9.148;2023-07-02T15:11:34;14.30;;;12.00;;
1839;SDS011;920;48.944;9.148;2023-07-02T15:14:01;13.60;;;11.57;;
1839;SDS011;920;48.944;9.148;2023-07-02T15:16:28;13.50;;;11.27;;
1839;SDS011;920;48.944;9.148;2023-07-02T15:18:55;14.27;;;12.10;;